IGO953J VOBL-VOPB
Flight info
| Callsign | IGO953J |
|---|---|
| Flight time | 2h 10m |
| Altitude | 35000 |
| Route | TULNA8A TULNA W116 MMV P761 LEGIN L510 NIMOV |
| Aircraft | A21N/M-SDE2E3FGHIRWXY/LB1 |
Departure
| Time | 2026-05-07 07:39 |
|---|---|
| Airport | Kempegowda International Airport Bengaluru (VOBL) |
Arrival
| Time | 2026-05-07 09:50 |
|---|---|
| Airport | Veer Savarkar International Airport / INS Utkrosh (VOPB) |
| Time | Latitude | Longitude | Altitude | Speed | Heading |
|---|---|---|---|---|---|
| 2026-05-07 07:00 | 13.20171 | 77.71037 | 2967 ft | 0 kts | 179° |
| 2026-05-07 07:26 | 13.20178 | 77.71037 | 2967 ft | 2 kts | 179° |
| 2026-05-07 07:26 | 13.20193 | 77.71037 | 2967 ft | 2 kts | 179° |
| 2026-05-07 07:26 | 13.20208 | 77.71037 | 2966 ft | 2 kts | 179° |
| 2026-05-07 07:27 | 13.20223 | 77.71040 | 2966 ft | 2 kts | 213° |
| 2026-05-07 07:27 | 13.20234 | 77.71051 | 2966 ft | 2 kts | 238° |
| 2026-05-07 07:27 | 13.20239 | 77.71066 | 2965 ft | 1 kts | 264° |
| 2026-05-07 07:27 | 13.20239 | 77.71073 | 2965 ft | 1 kts | 273° |
| 2026-05-07 07:28 | 13.20239 | 77.71075 | 2965 ft | 0 kts | 271° |
| 2026-05-07 07:30 | 13.20239 | 77.71071 | 2965 ft | 0 kts | 271° |
| 2026-05-07 07:30 | 13.20240 | 77.71068 | 2965 ft | 0 kts | 271° |
| 2026-05-07 07:30 | 13.20240 | 77.71058 | 2965 ft | 2 kts | 271° |
| 2026-05-07 07:31 | 13.20240 | 77.71032 | 2966 ft | 4 kts | 271° |
| 2026-05-07 07:31 | 13.20241 | 77.70991 | 2967 ft | 6 kts | 270° |
| 2026-05-07 07:31 | 13.20240 | 77.70944 | 2969 ft | 6 kts | 270° |
| 2026-05-07 07:31 | 13.20241 | 77.70892 | 2971 ft | 7 kts | 271° |
| 2026-05-07 07:32 | 13.20242 | 77.70837 | 2973 ft | 8 kts | 271° |
| 2026-05-07 07:32 | 13.20242 | 77.70779 | 2975 ft | 8 kts | 270° |
| 2026-05-07 07:32 | 13.20242 | 77.70712 | 2977 ft | 10 kts | 270° |
| 2026-05-07 07:32 | 13.20242 | 77.70635 | 2978 ft | 11 kts | 271° |
| 2026-05-07 07:33 | 13.20243 | 77.70544 | 2980 ft | 13 kts | 270° |
| 2026-05-07 07:33 | 13.20243 | 77.70457 | 2982 ft | 11 kts | 270° |
| 2026-05-07 07:33 | 13.20279 | 77.70398 | 2983 ft | 9 kts | 342° |
| 2026-05-07 07:33 | 13.20349 | 77.70394 | 2983 ft | 10 kts | 359° |
| 2026-05-07 07:34 | 13.20430 | 77.70393 | 2985 ft | 12 kts | 360° |
| 2026-05-07 07:34 | 13.20507 | 77.70384 | 2987 ft | 10 kts | 332° |
| 2026-05-07 07:34 | 13.20530 | 77.70322 | 2988 ft | 9 kts | 271° |
| 2026-05-07 07:34 | 13.20530 | 77.70250 | 2989 ft | 11 kts | 270° |
| 2026-05-07 07:35 | 13.20531 | 77.70155 | 2991 ft | 14 kts | 270° |
| 2026-05-07 07:35 | 13.20532 | 77.70037 | 2990 ft | 19 kts | 271° |
| 2026-05-07 07:35 | 13.20533 | 77.69889 | 2989 ft | 20 kts | 270° |
| 2026-05-07 07:35 | 13.20534 | 77.69750 | 2991 ft | 18 kts | 271° |
| 2026-05-07 07:36 | 13.20536 | 77.69628 | 2993 ft | 15 kts | 271° |
| 2026-05-07 07:36 | 13.20536 | 77.69522 | 2995 ft | 13 kts | 270° |
| 2026-05-07 07:36 | 13.20537 | 77.69430 | 2998 ft | 12 kts | 271° |
| 2026-05-07 07:36 | 13.20538 | 77.69338 | 3001 ft | 13 kts | 270° |
| 2026-05-07 07:37 | 13.20538 | 77.69231 | 3003 ft | 16 kts | 270° |
| 2026-05-07 07:37 | 13.20539 | 77.69107 | 3006 ft | 18 kts | 271° |
| 2026-05-07 07:37 | 13.20540 | 77.68969 | 3009 ft | 20 kts | 270° |
| 2026-05-07 07:37 | 13.20539 | 77.68816 | 3011 ft | 22 kts | 272° |
| 2026-05-07 07:38 | 13.20546 | 77.68669 | 3011 ft | 17 kts | 283° |
| 2026-05-07 07:38 | 13.20639 | 77.68619 | 3011 ft | 16 kts | 358° |
| 2026-05-07 07:38 | 13.20713 | 77.68677 | 3011 ft | 14 kts | 81° |
| 2026-05-07 07:38 | 13.20712 | 77.68903 | 3011 ft | 62 kts | 90° |
| 2026-05-07 07:39 | 13.20707 | 77.69582 | 3000 ft | 126 kts | 90° |
| 2026-05-07 07:39 | 13.20707 | 77.70675 | 2975 ft | 179 kts | 91° |
| 2026-05-07 07:39 | 13.20681 | 77.72056 | 3255 ft | 198 kts | 92° |
| 2026-05-07 07:39 | 13.20811 | 77.73424 | 3937 ft | 198 kts | 72° |
| 2026-05-07 07:40 | 13.21480 | 77.74662 | 4535 ft | 207 kts | 53° |
| 2026-05-07 07:40 | 13.22389 | 77.75848 | 4919 ft | 218 kts | 55° |
| 2026-05-07 07:40 | 13.23259 | 77.77178 | 5283 ft | 229 kts | 60° |
| 2026-05-07 07:40 | 13.23710 | 77.78798 | 5439 ft | 249 kts | 93° |
| 2026-05-07 07:41 | 13.23422 | 77.80575 | 5782 ft | 264 kts | 103° |
| 2026-05-07 07:41 | 13.22947 | 77.82449 | 6212 ft | 277 kts | 104° |
| 2026-05-07 07:41 | 13.22473 | 77.84360 | 6861 ft | 280 kts | 103° |
| 2026-05-07 07:41 | 13.22020 | 77.86308 | 7534 ft | 282 kts | 102° |
| 2026-05-07 07:42 | 13.21585 | 77.88279 | 8184 ft | 285 kts | 101° |
| 2026-05-07 07:42 | 13.21161 | 77.90269 | 8824 ft | 288 kts | 101° |
| 2026-05-07 07:42 | 13.20748 | 77.92255 | 9450 ft | 291 kts | 101° |
| 2026-05-07 07:42 | 13.20328 | 77.94301 | 10079 ft | 294 kts | 101° |
| 2026-05-07 07:43 | 13.19906 | 77.96380 | 10533 ft | 304 kts | 100° |
| 2026-05-07 07:43 | 13.19469 | 77.98549 | 10809 ft | 320 kts | 100° |
| 2026-05-07 07:43 | 13.19013 | 78.00839 | 11083 ft | 335 kts | 100° |
| 2026-05-07 07:43 | 13.18542 | 78.03207 | 11475 ft | 345 kts | 100° |
| 2026-05-07 07:44 | 13.18060 | 78.05621 | 12069 ft | 349 kts | 100° |
| 2026-05-07 07:44 | 13.17564 | 78.08086 | 12694 ft | 352 kts | 100° |
| 2026-05-07 07:44 | 13.17071 | 78.10533 | 13297 ft | 354 kts | 100° |
| 2026-05-07 07:44 | 13.16571 | 78.13012 | 13795 ft | 357 kts | 100° |
| 2026-05-07 07:45 | 13.16072 | 78.15487 | 13988 ft | 358 kts | 100° |
| 2026-05-07 07:45 | 13.15565 | 78.17992 | 13990 ft | 357 kts | 100° |
| 2026-05-07 07:45 | 13.15057 | 78.20503 | 13992 ft | 357 kts | 100° |
| 2026-05-07 07:45 | 13.14554 | 78.22988 | 13993 ft | 357 kts | 100° |
| 2026-05-07 07:46 | 13.14049 | 78.25476 | 13993 ft | 357 kts | 100° |
| 2026-05-07 07:46 | 13.13547 | 78.27957 | 13994 ft | 357 kts | 100° |
| 2026-05-07 07:46 | 13.13041 | 78.30450 | 13994 ft | 357 kts | 100° |
| 2026-05-07 07:46 | 13.12538 | 78.32931 | 13994 ft | 357 kts | 100° |
| 2026-05-07 07:47 | 13.12028 | 78.35441 | 13994 ft | 357 kts | 100° |
| 2026-05-07 07:47 | 13.11524 | 78.37921 | 13994 ft | 357 kts | 100° |
| 2026-05-07 07:47 | 13.11016 | 78.40425 | 13994 ft | 357 kts | 100° |
| 2026-05-07 07:47 | 13.10516 | 78.42883 | 13994 ft | 357 kts | 100° |
| 2026-05-07 07:48 | 13.10009 | 78.45373 | 13994 ft | 357 kts | 100° |
| 2026-05-07 07:48 | 13.09500 | 78.47873 | 13994 ft | 357 kts | 100° |
| 2026-05-07 07:48 | 13.08989 | 78.50383 | 14004 ft | 359 kts | 100° |
| 2026-05-07 07:48 | 13.08479 | 78.52891 | 14319 ft | 364 kts | 100° |
| 2026-05-07 07:49 | 13.07962 | 78.55429 | 15011 ft | 363 kts | 100° |
| 2026-05-07 07:49 | 13.07452 | 78.57929 | 15627 ft | 365 kts | 100° |
| 2026-05-07 07:49 | 13.06933 | 78.60471 | 16181 ft | 367 kts | 100° |
| 2026-05-07 07:49 | 13.06403 | 78.63068 | 16736 ft | 370 kts | 100° |
| 2026-05-07 07:50 | 13.05877 | 78.65642 | 17279 ft | 373 kts | 100° |
| 2026-05-07 07:50 | 13.05344 | 78.68250 | 17820 ft | 375 kts | 100° |
| 2026-05-07 07:50 | 13.04807 | 78.70871 | 18352 ft | 378 kts | 100° |
| 2026-05-07 07:50 | 13.04268 | 78.73508 | 18878 ft | 380 kts | 100° |
| 2026-05-07 07:51 | 13.03726 | 78.76155 | 19395 ft | 383 kts | 100° |
| 2026-05-07 07:51 | 13.03181 | 78.78812 | 19904 ft | 385 kts | 100° |
| 2026-05-07 07:51 | 13.02626 | 78.81519 | 20414 ft | 387 kts | 100° |
| 2026-05-07 07:51 | 13.02074 | 78.84212 | 20913 ft | 390 kts | 100° |
| 2026-05-07 07:52 | 13.01512 | 78.86948 | 21405 ft | 392 kts | 100° |
| 2026-05-07 07:52 | 13.00954 | 78.89661 | 21881 ft | 394 kts | 100° |
| 2026-05-07 07:52 | 13.00385 | 78.92424 | 22355 ft | 397 kts | 100° |
| 2026-05-07 07:52 | 12.99817 | 78.95181 | 22818 ft | 399 kts | 100° |
| 2026-05-07 07:53 | 12.99244 | 78.97961 | 23273 ft | 401 kts | 100° |
| 2026-05-07 07:53 | 12.98665 | 79.00765 | 23717 ft | 403 kts | 100° |
| 2026-05-07 07:53 | 12.98088 | 79.03563 | 24146 ft | 405 kts | 100° |
| 2026-05-07 07:53 | 12.97524 | 79.06406 | 24568 ft | 407 kts | 98° |
| 2026-05-07 07:54 | 12.97132 | 79.09256 | 24976 ft | 409 kts | 94° |
| 2026-05-07 07:54 | 12.96946 | 79.12187 | 25382 ft | 410 kts | 89° |
| 2026-05-07 07:54 | 12.96951 | 79.15084 | 25773 ft | 412 kts | 87° |
| 2026-05-07 07:54 | 12.97007 | 79.18012 | 26157 ft | 414 kts | 87° |
| 2026-05-07 07:55 | 12.97068 | 79.20857 | 26511 ft | 416 kts | 87° |
| 2026-05-07 07:55 | 12.97133 | 79.23891 | 26880 ft | 418 kts | 87° |
| 2026-05-07 07:55 | 12.97196 | 79.26897 | 27242 ft | 419 kts | 87° |
| 2026-05-07 07:55 | 12.97257 | 79.29870 | 27590 ft | 421 kts | 87° |
| 2026-05-07 07:56 | 12.97317 | 79.32891 | 27930 ft | 422 kts | 87° |
| 2026-05-07 07:56 | 12.97375 | 79.35863 | 28255 ft | 424 kts | 87° |
| 2026-05-07 07:56 | 12.97434 | 79.38922 | 28578 ft | 425 kts | 87° |
| 2026-05-07 07:56 | 12.97492 | 79.41943 | 28885 ft | 427 kts | 87° |
| 2026-05-07 07:57 | 12.97551 | 79.45000 | 29186 ft | 428 kts | 87° |
| 2026-05-07 07:57 | 12.97608 | 79.48020 | 29477 ft | 430 kts | 87° |
| 2026-05-07 07:57 | 12.97665 | 79.51112 | 29761 ft | 431 kts | 88° |
| 2026-05-07 07:57 | 12.97708 | 79.53381 | 29963 ft | 432 kts | 88° |
| 2026-05-07 07:58 | 12.97774 | 79.56963 | 30272 ft | 433 kts | 88° |
| 2026-05-07 07:58 | 12.97832 | 79.60133 | 30592 ft | 433 kts | 88° |
| 2026-05-07 07:58 | 12.97887 | 79.63194 | 30963 ft | 431 kts | 88° |
| 2026-05-07 07:58 | 12.97942 | 79.66281 | 31336 ft | 429 kts | 88° |
| 2026-05-07 07:59 | 12.97995 | 79.69330 | 31689 ft | 428 kts | 88° |
| 2026-05-07 07:59 | 12.98048 | 79.72372 | 32018 ft | 426 kts | 88° |
| 2026-05-07 07:59 | 12.98100 | 79.75401 | 32331 ft | 425 kts | 88° |
| 2026-05-07 07:59 | 12.98152 | 79.78442 | 32633 ft | 424 kts | 88° |
| 2026-05-07 08:00 | 12.98204 | 79.81448 | 32924 ft | 423 kts | 88° |
| 2026-05-07 08:00 | 12.98256 | 79.84454 | 33184 ft | 423 kts | 88° |
| 2026-05-07 08:00 | 12.98307 | 79.87461 | 33397 ft | 423 kts | 88° |
| 2026-05-07 08:00 | 12.98358 | 79.90468 | 33591 ft | 424 kts | 88° |
| 2026-05-07 08:01 | 12.98410 | 79.93559 | 33785 ft | 424 kts | 88° |
| 2026-05-07 08:01 | 12.98462 | 79.96655 | 33979 ft | 425 kts | 89° |
| 2026-05-07 08:01 | 12.98513 | 79.99771 | 34167 ft | 425 kts | 89° |
| 2026-05-07 08:01 | 12.98563 | 80.02823 | 34340 ft | 426 kts | 89° |
| 2026-05-07 08:02 | 12.98614 | 80.05959 | 34507 ft | 426 kts | 89° |
| 2026-05-07 08:02 | 12.98666 | 80.09096 | 34667 ft | 427 kts | 88° |
| 2026-05-07 08:02 | 12.98717 | 80.12279 | 34793 ft | 428 kts | 89° |
| 2026-05-07 08:03 | 12.98490 | 80.18619 | 34799 ft | 429 kts | 94° |
| 2026-05-07 08:03 | 12.97925 | 80.25013 | 34801 ft | 429 kts | 94° |
| 2026-05-07 08:04 | 12.97348 | 80.31400 | 34801 ft | 429 kts | 94° |
| 2026-05-07 08:04 | 12.96763 | 80.37862 | 34801 ft | 428 kts | 94° |
| 2026-05-07 08:05 | 12.96188 | 80.44196 | 34802 ft | 428 kts | 94° |
| 2026-05-07 08:05 | 12.95608 | 80.50567 | 34801 ft | 428 kts | 94° |
| 2026-05-07 08:06 | 12.95035 | 80.56843 | 34802 ft | 428 kts | 94° |
| 2026-05-07 08:06 | 12.94452 | 80.63216 | 34802 ft | 428 kts | 94° |
| 2026-05-07 08:07 | 12.93871 | 80.69544 | 34802 ft | 428 kts | 95° |
| 2026-05-07 08:07 | 12.93282 | 80.75941 | 34801 ft | 428 kts | 95° |
| 2026-05-07 08:08 | 12.92688 | 80.82378 | 34801 ft | 428 kts | 95° |
| 2026-05-07 08:08 | 12.92097 | 80.88763 | 34801 ft | 428 kts | 95° |
| 2026-05-07 08:09 | 12.91505 | 80.95139 | 34801 ft | 428 kts | 94° |
| 2026-05-07 08:09 | 12.90912 | 81.01502 | 34801 ft | 428 kts | 94° |
| 2026-05-07 08:10 | 12.90313 | 81.07927 | 34801 ft | 428 kts | 94° |
| 2026-05-07 08:10 | 12.89719 | 81.14279 | 34801 ft | 428 kts | 94° |
| 2026-05-07 08:11 | 12.89119 | 81.20689 | 34801 ft | 428 kts | 94° |
| 2026-05-07 08:11 | 12.88512 | 81.27136 | 34801 ft | 428 kts | 94° |
| 2026-05-07 08:12 | 12.87907 | 81.33563 | 34801 ft | 428 kts | 94° |
| 2026-05-07 08:12 | 12.87300 | 81.39980 | 34801 ft | 428 kts | 94° |
| 2026-05-07 08:13 | 12.86707 | 81.46242 | 34801 ft | 428 kts | 94° |
| 2026-05-07 08:13 | 12.86098 | 81.52652 | 34801 ft | 428 kts | 94° |
| 2026-05-07 08:14 | 12.85492 | 81.59015 | 34801 ft | 428 kts | 94° |
| 2026-05-07 08:14 | 12.84887 | 81.65434 | 34802 ft | 428 kts | 94° |
| 2026-05-07 08:15 | 12.84277 | 81.71878 | 34801 ft | 428 kts | 94° |
| 2026-05-07 08:15 | 12.83658 | 81.78344 | 34801 ft | 428 kts | 94° |
| 2026-05-07 08:16 | 12.83044 | 81.84740 | 34801 ft | 428 kts | 94° |
| 2026-05-07 08:16 | 12.82433 | 81.91076 | 34801 ft | 428 kts | 94° |
| 2026-05-07 08:17 | 12.81812 | 81.97499 | 34801 ft | 428 kts | 94° |
| 2026-05-07 08:17 | 12.81190 | 82.03906 | 34801 ft | 428 kts | 94° |
| 2026-05-07 08:18 | 12.80570 | 82.10283 | 34801 ft | 428 kts | 94° |
| 2026-05-07 08:18 | 12.79947 | 82.16677 | 34801 ft | 428 kts | 94° |
| 2026-05-07 08:19 | 12.79319 | 82.23105 | 34801 ft | 428 kts | 94° |
| 2026-05-07 08:19 | 12.78683 | 82.29591 | 34801 ft | 428 kts | 94° |
| 2026-05-07 08:20 | 12.78052 | 82.36015 | 34801 ft | 428 kts | 94° |
| 2026-05-07 08:20 | 12.77423 | 82.42406 | 34801 ft | 428 kts | 94° |
| 2026-05-07 08:21 | 12.76793 | 82.48783 | 34801 ft | 428 kts | 94° |
| 2026-05-07 08:21 | 12.76158 | 82.55205 | 34801 ft | 428 kts | 94° |
| 2026-05-07 08:22 | 12.75521 | 82.61623 | 34801 ft | 428 kts | 94° |
| 2026-05-07 08:22 | 12.74890 | 82.67964 | 34802 ft | 428 kts | 94° |
| 2026-05-07 08:23 | 12.74258 | 82.74312 | 34801 ft | 428 kts | 94° |
| 2026-05-07 08:23 | 12.73616 | 82.80735 | 34801 ft | 428 kts | 94° |
| 2026-05-07 08:24 | 12.72973 | 82.87140 | 34801 ft | 429 kts | 94° |
| 2026-05-07 08:24 | 12.72330 | 82.93549 | 34801 ft | 431 kts | 95° |
| 2026-05-07 08:25 | 12.71687 | 82.99937 | 34801 ft | 432 kts | 95° |
| 2026-05-07 08:25 | 12.71065 | 83.06090 | 34801 ft | 434 kts | 95° |
| 2026-05-07 08:26 | 12.70135 | 83.15273 | 34801 ft | 434 kts | 95° |
| 2026-05-07 08:26 | 12.69510 | 83.21413 | 34801 ft | 434 kts | 95° |
| 2026-05-07 08:27 | 12.68881 | 83.27596 | 34801 ft | 434 kts | 95° |
| 2026-05-07 08:27 | 12.68253 | 83.33737 | 34801 ft | 434 kts | 95° |
| 2026-05-07 08:28 | 12.67625 | 83.39862 | 34801 ft | 434 kts | 95° |
| 2026-05-07 08:28 | 12.66991 | 83.46008 | 34801 ft | 434 kts | 95° |
| 2026-05-07 08:29 | 12.66361 | 83.52119 | 34801 ft | 434 kts | 95° |
| 2026-05-07 08:29 | 12.65736 | 83.58274 | 34801 ft | 434 kts | 94° |
| 2026-05-07 08:30 | 12.65140 | 83.64390 | 34801 ft | 434 kts | 94° |
| 2026-05-07 08:30 | 12.64535 | 83.70533 | 34802 ft | 434 kts | 95° |
| 2026-05-07 08:31 | 12.63924 | 83.76686 | 34801 ft | 434 kts | 95° |
| 2026-05-07 08:31 | 12.63313 | 83.82806 | 34801 ft | 434 kts | 95° |
| 2026-05-07 08:32 | 12.62698 | 83.88951 | 34801 ft | 434 kts | 95° |
| 2026-05-07 08:32 | 12.62081 | 83.95090 | 34801 ft | 434 kts | 95° |
| 2026-05-07 08:33 | 12.61463 | 84.01233 | 34801 ft | 434 kts | 95° |
| 2026-05-07 08:33 | 12.60842 | 84.07388 | 34801 ft | 434 kts | 95° |
| 2026-05-07 08:34 | 12.60223 | 84.13509 | 34801 ft | 434 kts | 95° |
| 2026-05-07 08:34 | 12.59600 | 84.19644 | 34801 ft | 434 kts | 95° |
| 2026-05-07 08:35 | 12.58978 | 84.25769 | 34801 ft | 434 kts | 95° |
| 2026-05-07 08:35 | 12.58353 | 84.31906 | 34801 ft | 434 kts | 95° |
| 2026-05-07 08:36 | 12.57725 | 84.38055 | 34801 ft | 434 kts | 95° |
| 2026-05-07 08:36 | 12.57098 | 84.44186 | 34801 ft | 434 kts | 95° |
| 2026-05-07 08:37 | 12.56467 | 84.50339 | 34801 ft | 434 kts | 95° |
| 2026-05-07 08:37 | 12.55802 | 84.56806 | 34801 ft | 434 kts | 95° |
| 2026-05-07 08:38 | 12.55122 | 84.63407 | 34801 ft | 434 kts | 95° |
| 2026-05-07 08:38 | 12.54458 | 84.69833 | 34802 ft | 434 kts | 95° |
| 2026-05-07 08:39 | 12.53787 | 84.76318 | 34801 ft | 434 kts | 95° |
| 2026-05-07 08:39 | 12.53112 | 84.82824 | 34801 ft | 434 kts | 95° |
| 2026-05-07 08:40 | 12.52440 | 84.89286 | 34801 ft | 434 kts | 95° |
| 2026-05-07 08:40 | 12.51761 | 84.95790 | 34801 ft | 434 kts | 95° |
| 2026-05-07 08:41 | 12.51081 | 85.02310 | 34801 ft | 435 kts | 95° |
| 2026-05-07 08:41 | 12.50398 | 85.08830 | 34801 ft | 436 kts | 95° |
| 2026-05-07 08:42 | 12.49712 | 85.15364 | 34801 ft | 437 kts | 95° |
| 2026-05-07 08:42 | 12.49029 | 85.21855 | 34801 ft | 438 kts | 95° |
| 2026-05-07 08:43 | 12.48362 | 85.28171 | 34801 ft | 438 kts | 95° |
| 2026-05-07 08:43 | 12.47705 | 85.34383 | 34801 ft | 438 kts | 95° |
| 2026-05-07 08:44 | 12.47050 | 85.40562 | 34801 ft | 438 kts | 95° |
| 2026-05-07 08:44 | 12.46393 | 85.46757 | 34801 ft | 438 kts | 95° |
| 2026-05-07 08:45 | 12.45731 | 85.52977 | 34801 ft | 438 kts | 95° |
| 2026-05-07 08:45 | 12.45070 | 85.59174 | 34795 ft | 438 kts | 95° |
| 2026-05-07 08:46 | 12.44411 | 85.65337 | 34784 ft | 438 kts | 95° |
| 2026-05-07 08:46 | 12.43704 | 85.71936 | 34778 ft | 438 kts | 95° |
| 2026-05-07 08:47 | 12.43013 | 85.78374 | 34776 ft | 438 kts | 95° |
| 2026-05-07 08:47 | 12.42303 | 85.84971 | 34775 ft | 438 kts | 95° |
| 2026-05-07 08:48 | 12.41588 | 85.91595 | 34775 ft | 438 kts | 95° |
| 2026-05-07 08:48 | 12.40881 | 85.98135 | 34775 ft | 438 kts | 95° |
| 2026-05-07 08:49 | 12.40175 | 86.04655 | 34778 ft | 438 kts | 95° |
| 2026-05-07 08:49 | 12.39462 | 86.11214 | 34783 ft | 438 kts | 95° |
| 2026-05-07 08:50 | 12.38748 | 86.17773 | 34789 ft | 438 kts | 95° |
| 2026-05-07 08:50 | 12.38027 | 86.24381 | 34794 ft | 438 kts | 95° |
| 2026-05-07 08:51 | 12.37313 | 86.30917 | 34800 ft | 438 kts | 95° |
| 2026-05-07 08:51 | 12.36593 | 86.37485 | 34807 ft | 438 kts | 95° |
| 2026-05-07 08:52 | 12.35867 | 86.44097 | 34815 ft | 438 kts | 95° |
| 2026-05-07 08:52 | 12.35157 | 86.50545 | 34819 ft | 438 kts | 95° |
| 2026-05-07 08:53 | 12.34474 | 86.56737 | 34817 ft | 438 kts | 95° |
| 2026-05-07 08:53 | 12.33793 | 86.62897 | 34812 ft | 438 kts | 95° |
| 2026-05-07 08:54 | 12.33106 | 86.69099 | 34806 ft | 438 kts | 95° |
| 2026-05-07 08:54 | 12.32423 | 86.75251 | 34802 ft | 438 kts | 95° |
| 2026-05-07 08:55 | 12.31733 | 86.81454 | 34801 ft | 438 kts | 95° |
| 2026-05-07 08:55 | 12.31046 | 86.87618 | 34801 ft | 438 kts | 95° |
| 2026-05-07 08:56 | 12.30357 | 86.93793 | 34801 ft | 438 kts | 96° |
| 2026-05-07 08:56 | 12.29665 | 86.99980 | 34801 ft | 438 kts | 96° |
| 2026-05-07 08:57 | 12.28974 | 87.06146 | 34801 ft | 437 kts | 96° |
| 2026-05-07 08:57 | 12.28283 | 87.12294 | 34801 ft | 437 kts | 96° |
| 2026-05-07 08:58 | 12.27588 | 87.18458 | 34801 ft | 437 kts | 96° |
| 2026-05-07 08:58 | 12.26891 | 87.24631 | 34801 ft | 437 kts | 96° |
| 2026-05-07 08:59 | 12.26191 | 87.30814 | 34801 ft | 437 kts | 96° |
| 2026-05-07 08:59 | 12.25495 | 87.36958 | 34801 ft | 437 kts | 96° |
| 2026-05-07 09:00 | 12.24792 | 87.43142 | 34801 ft | 437 kts | 96° |
| 2026-05-07 09:00 | 12.24093 | 87.49293 | 34801 ft | 437 kts | 96° |
| 2026-05-07 09:01 | 12.23390 | 87.55454 | 34801 ft | 437 kts | 96° |
| 2026-05-07 09:01 | 12.22688 | 87.61601 | 34801 ft | 437 kts | 96° |
| 2026-05-07 09:02 | 12.21982 | 87.67767 | 34802 ft | 437 kts | 96° |
| 2026-05-07 09:02 | 12.21272 | 87.73953 | 34801 ft | 437 kts | 96° |
| 2026-05-07 09:03 | 12.20567 | 87.80087 | 34801 ft | 437 kts | 96° |
| 2026-05-07 09:03 | 12.19858 | 87.86241 | 34801 ft | 437 kts | 96° |
| 2026-05-07 09:04 | 12.19143 | 87.92435 | 34801 ft | 437 kts | 96° |
| 2026-05-07 09:04 | 12.18435 | 87.98560 | 34801 ft | 437 kts | 96° |
| 2026-05-07 09:05 | 12.17720 | 88.04732 | 34801 ft | 437 kts | 96° |
| 2026-05-07 09:05 | 12.17003 | 88.10905 | 34801 ft | 437 kts | 96° |
| 2026-05-07 09:06 | 12.16286 | 88.17067 | 34801 ft | 437 kts | 96° |
| 2026-05-07 09:06 | 12.15568 | 88.23224 | 34801 ft | 437 kts | 96° |
| 2026-05-07 09:07 | 12.14846 | 88.29406 | 34801 ft | 437 kts | 96° |
| 2026-05-07 09:07 | 12.14125 | 88.35558 | 34801 ft | 437 kts | 96° |
| 2026-05-07 09:08 | 12.13404 | 88.41704 | 34801 ft | 437 kts | 96° |
| 2026-05-07 09:08 | 12.12683 | 88.47829 | 34801 ft | 437 kts | 96° |
| 2026-05-07 09:09 | 12.11952 | 88.54021 | 34801 ft | 437 kts | 96° |
| 2026-05-07 09:09 | 12.11224 | 88.60157 | 34801 ft | 437 kts | 96° |
| 2026-05-07 09:10 | 12.10501 | 88.66251 | 34802 ft | 437 kts | 96° |
| 2026-05-07 09:10 | 12.09837 | 88.72448 | 34801 ft | 437 kts | 95° |
| 2026-05-07 09:11 | 12.09308 | 88.78650 | 34801 ft | 437 kts | 95° |
| 2026-05-07 09:11 | 12.08779 | 88.84801 | 34801 ft | 438 kts | 95° |
| 2026-05-07 09:12 | 12.08237 | 88.90994 | 34800 ft | 439 kts | 95° |
| 2026-05-07 09:12 | 12.07687 | 88.97205 | 34801 ft | 441 kts | 95° |
| 2026-05-07 09:13 | 12.07134 | 89.03427 | 34801 ft | 443 kts | 95° |
| 2026-05-07 09:13 | 12.06574 | 89.09700 | 34801 ft | 444 kts | 95° |
| 2026-05-07 09:14 | 12.06014 | 89.15951 | 34801 ft | 444 kts | 95° |
| 2026-05-07 09:14 | 12.05451 | 89.22218 | 34801 ft | 444 kts | 95° |
| 2026-05-07 09:15 | 12.04886 | 89.28503 | 34801 ft | 444 kts | 95° |
| 2026-05-07 09:15 | 12.04322 | 89.34749 | 34801 ft | 444 kts | 95° |
| 2026-05-07 09:16 | 12.03756 | 89.41010 | 34796 ft | 444 kts | 95° |
| 2026-05-07 09:16 | 12.03189 | 89.47263 | 34785 ft | 444 kts | 95° |
| 2026-05-07 09:17 | 12.02621 | 89.53515 | 34779 ft | 444 kts | 95° |
| 2026-05-07 09:17 | 12.02049 | 89.59792 | 34776 ft | 444 kts | 95° |
| 2026-05-07 09:18 | 12.01476 | 89.66069 | 34775 ft | 444 kts | 95° |
| 2026-05-07 09:18 | 12.00901 | 89.72337 | 34775 ft | 444 kts | 95° |
| 2026-05-07 09:19 | 12.00327 | 89.78589 | 34774 ft | 444 kts | 95° |
| 2026-05-07 09:19 | 11.99749 | 89.84868 | 34774 ft | 444 kts | 95° |
| 2026-05-07 09:20 | 11.99173 | 89.91106 | 34775 ft | 444 kts | 95° |
| 2026-05-07 09:20 | 11.98592 | 89.97391 | 34775 ft | 444 kts | 95° |
| 2026-05-07 09:21 | 11.98013 | 90.03639 | 34775 ft | 444 kts | 95° |
| 2026-05-07 09:21 | 11.97429 | 90.09918 | 34775 ft | 444 kts | 95° |
| 2026-05-07 09:22 | 11.96846 | 90.16174 | 34775 ft | 444 kts | 95° |
| 2026-05-07 09:22 | 11.96260 | 90.22454 | 34775 ft | 444 kts | 95° |
| 2026-05-07 09:23 | 11.95676 | 90.28693 | 34775 ft | 444 kts | 95° |
| 2026-05-07 09:23 | 11.95089 | 90.34940 | 34775 ft | 444 kts | 95° |
| 2026-05-07 09:24 | 11.94499 | 90.41216 | 34775 ft | 444 kts | 95° |
| 2026-05-07 09:24 | 11.93908 | 90.47485 | 34775 ft | 444 kts | 95° |
| 2026-05-07 09:25 | 11.93316 | 90.53745 | 34775 ft | 444 kts | 95° |
| 2026-05-07 09:25 | 11.92721 | 90.60030 | 34775 ft | 444 kts | 95° |
| 2026-05-07 09:26 | 11.92128 | 90.66270 | 34775 ft | 444 kts | 95° |
| 2026-05-07 09:26 | 11.91528 | 90.72559 | 34775 ft | 444 kts | 95° |
| 2026-05-07 09:27 | 11.90931 | 90.78806 | 34775 ft | 444 kts | 95° |
| 2026-05-07 09:28 | 11.90030 | 90.88216 | 34774 ft | 444 kts | 95° |
| 2026-05-07 09:28 | 11.89430 | 90.94466 | 34376 ft | 447 kts | 95° |
| 2026-05-07 09:28 | 11.89128 | 90.97601 | 33937 ft | 443 kts | 95° |
| 2026-05-07 09:29 | 11.88829 | 91.00717 | 33283 ft | 443 kts | 95° |
| 2026-05-07 09:29 | 11.88527 | 91.03854 | 32529 ft | 445 kts | 95° |
| 2026-05-07 09:29 | 11.88226 | 91.06984 | 31774 ft | 446 kts | 95° |
| 2026-05-07 09:29 | 11.87924 | 91.10123 | 31048 ft | 446 kts | 95° |
| 2026-05-07 09:30 | 11.87622 | 91.13259 | 30530 ft | 441 kts | 95° |
| 2026-05-07 09:30 | 11.87326 | 91.16316 | 30066 ft | 435 kts | 96° |
| 2026-05-07 09:30 | 11.87027 | 91.19370 | 29789 ft | 428 kts | 96° |
| 2026-05-07 09:30 | 11.86733 | 91.22376 | 29545 ft | 424 kts | 96° |
| 2026-05-07 09:31 | 11.86443 | 91.25338 | 29004 ft | 422 kts | 96° |
| 2026-05-07 09:31 | 11.86151 | 91.28323 | 28365 ft | 421 kts | 96° |
| 2026-05-07 09:31 | 11.85797 | 91.31251 | 27774 ft | 419 kts | 98° |
| 2026-05-07 09:31 | 11.85385 | 91.34182 | 27211 ft | 416 kts | 98° |
| 2026-05-07 09:32 | 11.84973 | 91.37071 | 26652 ft | 413 kts | 98° |
| 2026-05-07 09:32 | 11.84557 | 91.39975 | 26088 ft | 410 kts | 98° |
| 2026-05-07 09:32 | 11.84148 | 91.42828 | 25534 ft | 407 kts | 98° |
| 2026-05-07 09:32 | 11.83743 | 91.45652 | 24987 ft | 404 kts | 98° |
| 2026-05-07 09:33 | 11.83341 | 91.48453 | 24446 ft | 401 kts | 98° |
| 2026-05-07 09:33 | 11.82935 | 91.51280 | 23900 ft | 399 kts | 98° |
| 2026-05-07 09:33 | 11.82534 | 91.54075 | 23403 ft | 395 kts | 98° |
| 2026-05-07 09:33 | 11.82142 | 91.56802 | 22999 ft | 391 kts | 98° |
| 2026-05-07 09:34 | 11.81758 | 91.59528 | 22544 ft | 388 kts | 96° |
| 2026-05-07 09:34 | 11.81568 | 91.62292 | 21798 ft | 392 kts | 92° |
| 2026-05-07 09:34 | 11.81368 | 91.65050 | 21035 ft | 395 kts | 100° |
| 2026-05-07 09:34 | 11.80678 | 91.67716 | 20677 ft | 387 kts | 104° |
| 2026-05-07 09:35 | 11.80017 | 91.70381 | 20289 ft | 381 kts | 103° |
| 2026-05-07 09:35 | 11.79452 | 91.72971 | 19777 ft | 379 kts | 101° |
| 2026-05-07 09:35 | 11.78942 | 91.75609 | 19247 ft | 377 kts | 102° |
| 2026-05-07 09:35 | 11.78142 | 91.78128 | 18872 ft | 371 kts | 111° |
| 2026-05-07 09:36 | 11.77169 | 91.80530 | 18473 ft | 366 kts | 112° |
| 2026-05-07 09:36 | 11.76176 | 91.82928 | 17970 ft | 364 kts | 112° |
| 2026-05-07 09:36 | 11.75206 | 91.85304 | 17463 ft | 362 kts | 111° |
| 2026-05-07 09:36 | 11.74262 | 91.87656 | 16971 ft | 360 kts | 111° |
| 2026-05-07 09:37 | 11.73329 | 91.90010 | 16479 ft | 358 kts | 111° |
| 2026-05-07 09:37 | 11.72408 | 91.92348 | 15989 ft | 356 kts | 111° |
| 2026-05-07 09:37 | 11.71483 | 91.94707 | 15493 ft | 354 kts | 111° |
| 2026-05-07 09:37 | 11.70586 | 91.97001 | 15009 ft | 352 kts | 111° |
| 2026-05-07 09:38 | 11.69685 | 91.99308 | 14521 ft | 350 kts | 111° |
| 2026-05-07 09:38 | 11.68784 | 92.01617 | 14031 ft | 348 kts | 111° |
| 2026-05-07 09:38 | 11.67895 | 92.03895 | 13547 ft | 346 kts | 111° |
| 2026-05-07 09:38 | 11.67018 | 92.06145 | 13068 ft | 344 kts | 111° |
| 2026-05-07 09:39 | 11.66133 | 92.08411 | 12590 ft | 342 kts | 111° |
| 2026-05-07 09:39 | 11.65265 | 92.10637 | 12125 ft | 340 kts | 111° |
| 2026-05-07 09:39 | 11.64388 | 92.12883 | 11655 ft | 337 kts | 111° |
| 2026-05-07 09:39 | 11.63530 | 92.15081 | 11207 ft | 335 kts | 111° |
| 2026-05-07 09:40 | 11.62677 | 92.17268 | 10887 ft | 327 kts | 111° |
| 2026-05-07 09:40 | 11.61856 | 92.19368 | 10702 ft | 317 kts | 111° |
| 2026-05-07 09:40 | 11.61047 | 92.21432 | 10514 ft | 306 kts | 111° |
| 2026-05-07 09:40 | 11.60273 | 92.23408 | 10330 ft | 297 kts | 111° |
| 2026-05-07 09:41 | 11.59518 | 92.25333 | 10045 ft | 291 kts | 111° |
| 2026-05-07 09:41 | 11.58773 | 92.27234 | 9657 ft | 289 kts | 111° |
| 2026-05-07 09:41 | 11.58026 | 92.29140 | 9265 ft | 288 kts | 111° |
| 2026-05-07 09:41 | 11.57282 | 92.31042 | 8879 ft | 286 kts | 111° |
| 2026-05-07 09:42 | 11.56557 | 92.32896 | 8501 ft | 284 kts | 112° |
| 2026-05-07 09:42 | 11.55824 | 92.34768 | 8116 ft | 282 kts | 112° |
| 2026-05-07 09:42 | 11.55100 | 92.36617 | 7734 ft | 280 kts | 112° |
| 2026-05-07 09:42 | 11.54380 | 92.38454 | 7353 ft | 279 kts | 112° |
| 2026-05-07 09:43 | 11.53672 | 92.40263 | 6976 ft | 277 kts | 111° |
| 2026-05-07 09:43 | 11.52955 | 92.42097 | 6593 ft | 275 kts | 112° |
| 2026-05-07 09:43 | 11.52256 | 92.43887 | 6219 ft | 274 kts | 112° |
| 2026-05-07 09:43 | 11.51549 | 92.45692 | 5838 ft | 272 kts | 112° |
| 2026-05-07 09:44 | 11.50851 | 92.47472 | 5462 ft | 271 kts | 112° |
| 2026-05-07 09:44 | 11.50158 | 92.49244 | 5084 ft | 269 kts | 112° |
| 2026-05-07 09:44 | 11.49465 | 92.51010 | 4708 ft | 268 kts | 112° |
| 2026-05-07 09:44 | 11.48771 | 92.52779 | 4326 ft | 267 kts | 112° |
| 2026-05-07 09:45 | 11.48086 | 92.54530 | 3856 ft | 270 kts | 112° |
| 2026-05-07 09:45 | 11.47395 | 92.56297 | 3626 ft | 262 kts | 112° |
| 2026-05-07 09:45 | 11.46968 | 92.58028 | 3557 ft | 249 kts | 89° |
| 2026-05-07 09:45 | 11.47376 | 92.59680 | 3512 ft | 235 kts | 63° |
| 2026-05-07 09:46 | 11.48303 | 92.61001 | 3450 ft | 228 kts | 46° |
| 2026-05-07 09:46 | 11.49476 | 92.62050 | 3372 ft | 221 kts | 38° |
| 2026-05-07 09:46 | 11.50699 | 92.62957 | 3121 ft | 212 kts | 36° |
| 2026-05-07 09:46 | 11.51888 | 92.63814 | 2806 ft | 207 kts | 36° |
| 2026-05-07 09:47 | 11.53035 | 92.64656 | 2509 ft | 202 kts | 37° |
| 2026-05-07 09:47 | 11.54137 | 92.65480 | 2230 ft | 196 kts | 37° |
| 2026-05-07 09:47 | 11.55218 | 92.66293 | 1961 ft | 186 kts | 37° |
| 2026-05-07 09:47 | 11.56208 | 92.67039 | 1749 ft | 168 kts | 38° |
| 2026-05-07 09:48 | 11.57103 | 92.67713 | 1507 ft | 152 kts | 38° |
| 2026-05-07 09:48 | 11.57942 | 92.68343 | 1316 ft | 150 kts | 38° |
| 2026-05-07 09:48 | 11.58779 | 92.68971 | 1135 ft | 149 kts | 38° |
| 2026-05-07 09:48 | 11.59607 | 92.69600 | 943 ft | 148 kts | 38° |
| 2026-05-07 09:49 | 11.60430 | 92.70220 | 724 ft | 149 kts | 36° |
| 2026-05-07 09:49 | 11.61276 | 92.70824 | 513 ft | 148 kts | 37° |
| 2026-05-07 09:49 | 11.62106 | 92.71442 | 340 ft | 147 kts | 38° |
| 2026-05-07 09:49 | 11.62935 | 92.72063 | 169 ft | 147 kts | 37° |
| 2026-05-07 09:50 | 11.63754 | 92.72683 | 55 ft | 139 kts | 38° |
| 2026-05-07 09:50 | 11.64419 | 92.73183 | 45 ft | 95 kts | 38° |
| 2026-05-07 09:50 | 11.64808 | 92.73481 | 58 ft | 45 kts | 38° |
| 2026-05-07 09:50 | 11.64892 | 92.73519 | 60 ft | 7 kts | 332° |
| 2026-05-07 09:51 | 11.64939 | 92.73470 | 58 ft | 7 kts | 304° |
| 2026-05-07 09:51 | 11.64933 | 92.73425 | 57 ft | 8 kts | 226° |
| 2026-05-07 09:51 | 11.64884 | 92.73383 | 56 ft | 10 kts | 217° |
| 2026-05-07 09:51 | 11.64822 | 92.73337 | 55 ft | 8 kts | 216° |
| 2026-05-07 09:52 | 11.64808 | 92.73327 | 54 ft | 0 kts | 216° |
| 2026-05-07 09:52 | 11.64804 | 92.73323 | 54 ft | 0 kts | 216° |
| 2026-05-07 09:52 | 11.64803 | 92.73322 | 54 ft | 0 kts | 227° |
| 2026-05-07 09:52 | 11.64803 | 92.73318 | 55 ft | 0 kts | 283° |
| 2026-05-07 09:53 | 11.64812 | 92.73318 | 55 ft | 3 kts | 34° |
| 2026-05-07 09:53 | 11.64845 | 92.73347 | 55 ft | 6 kts | 34° |
| 2026-05-07 09:53 | 11.64884 | 92.73341 | 56 ft | 5 kts | 327° |
| 2026-05-07 09:53 | 11.64898 | 92.73314 | 57 ft | 2 kts | 275° |
| 2026-05-07 09:54 | 11.64897 | 92.73307 | 57 ft | 0 kts | 259° |
| 2026-05-07 09:54 | 11.64897 | 92.73306 | 57 ft | 0 kts | 253° |
| 2026-05-07 09:54 | 11.64883 | 92.73296 | 58 ft | 3 kts | 193° |
| 2026-05-07 09:54 | 11.64867 | 92.73296 | 57 ft | 0 kts | 180° |